This is the latest recevied weather packets stored in our database for station/object KD0SBN. If no packets are shown the sender has not sent any weather packets the latest 10 day(s).
| Time | Temp. | Humidity | Pressure | Rain* | Wind** | Luminosity | Snow |
|---|---|---|---|---|---|---|---|
| 1778313966 | 11.11° C | 69% | 1014.1 hPa | 0 mm | - | - | - |
| 1778313663 | 11.11° C | 67% | 1014.1 hPa | 0 mm | - | - | - |
| 1778313361 | 11.67° C | 65% | 1014.3 hPa | 0 mm | - | - | - |
| 1778313058 | 11.11° C | 68% | 1014.4 hPa | 0 mm | - | - | - |
| 1778312755 | 11.11° C | 67% | 1014.4 hPa | 0 mm | - | - | - |
| 1778312451 | 11.67° C | 66% | 1014.4 hPa | 0 mm | - | - | - |
| 1778312148 | 12.22° C | 64% | 1014.3 hPa | 0 mm | - | - | - |
| 1778311845 | 11.67° C | 64% | 1014.8 hPa | 0 mm | - | - | - |
| 1778311541 | 11.67° C | 65% | 1014.7 hPa | 0 mm | - | - | - |
| 1778311238 | 12.22° C | 63% | 1014.5 hPa | 0 mm | - | - | - |
| 1778310935 | 12.22° C | 61% | 1014.8 hPa | 0 mm | - | - | - |
| 1778310632 | 12.22° C | 63% | 1014.7 hPa | 0 mm | - | - | - |
| 1778310329 | 12.22° C | 62% | 1014.9 hPa | 0 mm | - | - | - |
| 1778310025 | 12.78° C | 59% | 1014.9 hPa | 0 mm | - | - | - |
| 1778309721 | 12.78° C | 61% | 1015.1 hPa | 0 mm | - | - | - |
| 1778309417 | 12.22° C | 61% | 1014.9 hPa | 0 mm | - | - | - |
| 1778309116 | 12.22° C | 64% | 1015 hPa | 0 mm | - | - | - |
| 1778308814 | 12.78° C | 61% | 1015.2 hPa | 0 mm | - | - | - |
| 1778308514 | 13.33° C | 59% | 1015 hPa | 0 mm | - | - | - |
| 1778308211 | 14.44° C | 54% | 1015.1 hPa | 0 mm | - | - | - |
| 1778307908 | 14.44° C | 53% | 1015.1 hPa | 0 mm | - | - | - |
| 1778307606 | 15° C | 53% | 1015.2 hPa | 0 mm | - | - | - |
| 1778307303 | 15° C | 51% | 1015.1 hPa | 0 mm | - | - | - |
| 1778307001 | 15° C | 53% | 1015.2 hPa | 0 mm | - | - | - |
| 1778306697 | 15° C | 52% | 1015.1 hPa | 0 mm | - | - | - |
* Rain latest hour (hover to see other rain measurements)
** Current wind speed in m/s (hover to see current wind gust speed)